createdAt,value
2022-09-15T00:01:16.511Z,17.79
2022-09-15T00:03:44.635Z,17.76
2022-09-15T00:06:12.926Z,17.75
2022-09-15T00:08:42.722Z,17.77
2022-09-15T00:11:13.391Z,17.77
2022-09-15T00:13:41.856Z,17.75
2022-09-15T00:16:14.846Z,17.74
2022-09-15T00:18:43.899Z,17.74
2022-09-15T00:21:14.515Z,17.77
2022-09-15T00:23:44.162Z,17.77
2022-09-15T00:26:14.750Z,17.79
2022-09-15T00:28:43.265Z,17.86
2022-09-15T00:31:14.164Z,17.87
2022-09-15T00:33:42.927Z,17.98
2022-09-15T00:36:14.198Z,18.03
2022-09-15T00:38:43.658Z,17.92
2022-09-15T00:41:13.680Z,17.83
2022-09-15T00:43:53.003Z,17.78
2022-09-15T00:46:23.869Z,17.73
2022-09-15T00:48:57.811Z,17.66
2022-09-15T00:51:33.636Z,17.67
2022-09-15T00:54:06.336Z,17.65
2022-09-15T00:56:36.165Z,17.62
2022-09-15T00:59:11.440Z,17.56
2022-09-15T01:01:42.055Z,17.52
2022-09-15T01:04:10.975Z,17.47
2022-09-15T01:06:43.521Z,17.48
2022-09-15T01:09:19.426Z,17.43
2022-09-15T01:11:47.824Z,17.44
2022-09-15T01:14:16.079Z,17.42
2022-09-15T01:16:53.497Z,17.45
2022-09-15T01:19:47.706Z,17.46
2022-09-15T01:22:31.228Z,17.44
2022-09-15T01:25:10.261Z,17.47
2022-09-15T01:28:03.055Z,17.49
2022-09-15T01:30:37.043Z,17.50
2022-09-15T01:33:13.279Z,17.46
2022-09-15T01:35:52.295Z,17.34
2022-09-15T01:38:30.627Z,17.27
2022-09-15T01:41:03.427Z,17.25
2022-09-15T01:43:34.383Z,17.22
2022-09-15T01:46:05.694Z,17.23
2022-09-15T01:48:37.312Z,17.17
2022-09-15T01:51:08.075Z,17.14
2022-09-15T01:53:36.823Z,17.12
2022-09-15T01:56:08.413Z,17.09
2022-09-15T01:58:38.250Z,17.05
2022-09-15T02:01:14.075Z,17.02
2022-09-15T02:03:47.099Z,16.99
2022-09-15T02:06:22.337Z,16.99
2022-09-15T02:08:57.459Z,17.05
2022-09-15T02:11:28.150Z,17.08
2022-09-15T02:14:11.573Z,17.09
2022-09-15T02:16:45.350Z,17.08
2022-09-15T02:19:19.845Z,17.16
2022-09-15T02:21:58.540Z,17.22
2022-09-15T02:24:32.354Z,17.21
2022-09-15T02:27:03.295Z,17.12
2022-09-15T02:29:36.462Z,17.08
2022-09-15T02:32:08.085Z,17.02
2022-09-15T02:34:40.934Z,16.98
2022-09-15T02:37:10.994Z,16.94
2022-09-15T02:39:44.703Z,16.89
2022-09-15T02:42:13.440Z,16.89
2022-09-15T02:44:41.404Z,16.86
2022-09-15T02:47:10.800Z,16.85
2022-09-15T02:49:38.842Z,16.84
2022-09-15T02:52:06.909Z,16.95
2022-09-15T02:54:34.862Z,16.98
2022-09-15T02:57:02.970Z,16.91
2022-09-15T02:59:51.710Z,16.89
2022-09-15T03:02:21.647Z,16.86
2022-09-15T03:04:50.604Z,16.85
2022-09-15T03:07:19.452Z,16.85
2022-09-15T03:09:47.434Z,16.87
2022-09-15T03:12:16.068Z,16.85
2022-09-15T03:14:44.597Z,16.82
2022-09-15T03:17:12.571Z,16.80
2022-09-15T03:19:41.992Z,16.79
2022-09-15T03:22:10.561Z,16.78
2022-09-15T03:24:39.206Z,16.73
2022-09-15T03:27:07.253Z,16.75
2022-09-15T03:29:35.308Z,16.75
2022-09-15T03:32:03.851Z,16.76
2022-09-15T03:34:31.892Z,16.76
2022-09-15T03:37:01.240Z,16.75
2022-09-15T03:39:29.204Z,16.71
2022-09-15T03:41:57.240Z,16.75
2022-09-15T03:44:25.556Z,16.69
2022-09-15T03:46:53.600Z,16.70
2022-09-15T03:49:21.749Z,16.72
2022-09-15T03:51:49.704Z,16.63
2022-09-15T03:54:19.687Z,16.58
2022-09-15T03:56:49.121Z,16.55
2022-09-15T03:59:19.583Z,16.55
2022-09-15T04:01:48.647Z,16.57
2022-09-15T04:04:16.850Z,16.51
2022-09-15T04:06:45.261Z,16.46
2022-09-15T04:09:13.681Z,16.43
2022-09-15T04:11:42.976Z,16.43
2022-09-15T04:14:11.235Z,16.43
2022-09-15T04:16:39.348Z,16.44
2022-09-15T04:19:07.570Z,16.46
2022-09-15T04:21:35.574Z,16.55
2022-09-15T04:24:04.904Z,16.66
2022-09-15T04:26:34.422Z,16.66
2022-09-15T04:29:05.903Z,16.70
2022-09-15T04:31:35.114Z,16.72
2022-09-15T04:34:03.186Z,16.80
2022-09-15T04:36:31.485Z,16.84
2022-09-15T04:38:59.471Z,16.87
2022-09-15T04:41:28.457Z,16.86
2022-09-15T04:43:56.916Z,16.93
2022-09-15T04:46:26.523Z,16.96
2022-09-15T04:48:54.493Z,16.97
2022-09-15T04:51:23.239Z,16.98
2022-09-15T04:53:51.881Z,17.00
2022-09-15T04:56:22.146Z,17.09
2022-09-15T04:58:53.039Z,17.41
2022-09-15T05:01:23.138Z,17.47
2022-09-15T05:03:53.147Z,17.50
2022-09-15T05:06:23.116Z,17.55
2022-09-15T05:08:53.122Z,17.71
2022-09-15T05:11:21.565Z,17.84
2022-09-15T05:13:50.188Z,17.88
2022-09-15T05:16:20.410Z,17.84
2022-09-15T05:18:49.806Z,17.76
2022-09-15T05:21:21.443Z,17.91
2022-09-15T05:23:50.378Z,18.02
2022-09-15T05:26:20.904Z,17.98
2022-09-15T05:28:49.057Z,17.89
2022-09-15T05:31:21.180Z,17.93
2022-09-15T05:33:50.935Z,18.19
2022-09-15T05:36:23.461Z,18.19
2022-09-15T05:38:51.704Z,18.23
2022-09-15T05:41:20.928Z,18.37
2022-09-15T05:43:50.777Z,18.45
2022-09-15T05:46:20.635Z,18.61
2022-09-15T05:48:48.806Z,18.68
2022-09-15T05:51:16.831Z,18.76
2022-09-15T05:53:46.266Z,18.88
2022-09-15T05:56:15.939Z,18.91
2022-09-15T05:58:45.939Z,19.05
2022-09-15T06:01:16.395Z,19.14
2022-09-15T06:03:44.972Z,19.21
2022-09-15T06:06:13.441Z,19.26
2022-09-15T06:08:45.339Z,19.30
2022-09-15T06:11:19.033Z,19.33
2022-09-15T06:13:47.932Z,19.45
2022-09-15T06:16:18.433Z,19.51
2022-09-15T06:18:48.059Z,19.46
2022-09-15T06:21:18.685Z,19.51
2022-09-15T06:23:50.694Z,19.60
2022-09-15T06:26:21.504Z,19.66
2022-09-15T06:28:51.390Z,19.86
2022-09-15T06:31:20.557Z,19.98
2022-09-15T06:33:51.397Z,20.11
2022-09-15T06:36:21.767Z,20.19
2022-09-15T06:38:50.176Z,20.24
2022-09-15T06:41:18.247Z,20.36
2022-09-15T06:43:49.298Z,20.34
2022-09-15T06:46:19.340Z,20.41
2022-09-15T06:48:48.670Z,20.57
2022-09-15T06:51:18.721Z,20.64
2022-09-15T06:53:47.058Z,20.77
2022-09-15T06:56:17.201Z,20.96
2022-09-15T06:58:46.255Z,21.06
2022-09-15T07:01:20.595Z,21.09
2022-09-15T07:03:48.677Z,21.16
2022-09-15T07:06:17.069Z,21.17
2022-09-15T07:08:45.496Z,21.31
2022-09-15T07:11:13.874Z,21.47
2022-09-15T07:13:42.674Z,21.57
2022-09-15T07:16:13.684Z,21.63
2022-09-15T07:18:43.779Z,21.57
2022-09-15T07:21:14.500Z,21.69
2022-09-15T07:23:43.062Z,21.82
2022-09-15T07:26:13.358Z,21.94
2022-09-15T07:28:42.707Z,22.10
2022-09-15T07:31:13.622Z,22.24
2022-09-15T07:33:43.218Z,22.39
2022-09-15T07:36:12.024Z,22.52
2022-09-15T07:38:41.857Z,22.66
2022-09-15T07:41:12.393Z,22.85
2022-09-15T07:43:40.686Z,23.12
2022-09-15T07:46:08.855Z,23.34
2022-09-15T07:48:36.935Z,23.36
2022-09-15T07:51:06.604Z,23.41
2022-09-15T07:53:34.628Z,23.55
2022-09-15T07:56:02.854Z,23.64
2022-09-15T07:58:30.972Z,23.71
2022-09-15T08:01:03.439Z,23.91
2022-09-15T08:03:31.468Z,24.06
2022-09-15T08:06:00.131Z,24.15
2022-09-15T08:08:30.515Z,24.12
2022-09-15T08:10:59.125Z,24.21
2022-09-15T08:13:27.311Z,24.22
2022-09-15T08:15:55.445Z,24.40
2022-09-15T08:18:23.469Z,24.46
2022-09-15T08:20:51.479Z,24.56
2022-09-15T08:23:19.556Z,24.68
2022-09-15T08:25:51.481Z,24.80
2022-09-15T08:28:19.590Z,24.90
2022-09-15T08:30:47.590Z,24.99
2022-09-15T08:33:15.590Z,25.15
2022-09-15T08:35:43.555Z,25.23
2022-09-15T08:38:11.514Z,25.33
2022-09-15T08:40:39.592Z,25.43
2022-09-15T08:43:18.187Z,25.70
2022-09-15T08:45:54.048Z,25.78
2022-09-15T08:48:27.490Z,25.95
2022-09-15T08:50:59.140Z,26.01
2022-09-15T08:53:32.635Z,26.31
2022-09-15T08:56:08.233Z,26.25
2022-09-15T08:58:39.727Z,26.31
2022-09-15T09:01:18.727Z,26.33
2022-09-15T09:04:00.770Z,26.45
2022-09-15T09:06:39.930Z,26.69
2022-09-15T09:09:20.820Z,26.81
2022-09-15T09:12:10.311Z,26.99
2022-09-15T09:14:55.019Z,27.05
2022-09-15T09:17:43.232Z,27.25
2022-09-15T09:20:32.255Z,27.31
2022-09-15T09:23:02.484Z,27.43
2022-09-15T09:25:31.320Z,27.59
2022-09-15T09:28:01.349Z,27.76
2022-09-15T09:30:34.370Z,27.94
2022-09-15T09:33:18.819Z,27.98
2022-09-15T09:35:50.136Z,28.03
2022-09-15T09:38:23.967Z,28.12
2022-09-15T09:40:53.025Z,28.23
2022-09-15T09:43:21.550Z,28.37
2022-09-15T09:45:51.033Z,28.47
2022-09-15T09:48:22.164Z,28.76
2022-09-15T09:50:50.804Z,28.63
2022-09-15T09:53:24.656Z,28.71
2022-09-15T09:55:53.497Z,28.91
2022-09-15T09:58:24.149Z,28.99
2022-09-15T10:00:54.365Z,29.10
2022-09-15T10:03:26.219Z,29.25
2022-09-15T10:06:06.466Z,29.33
2022-09-15T10:08:36.771Z,29.37
2022-09-15T10:11:07.802Z,29.40
2022-09-15T10:13:37.407Z,29.46
2022-09-15T10:16:08.024Z,29.49
2022-09-15T10:18:38.728Z,29.58
2022-09-15T10:21:09.519Z,29.73
2022-09-15T10:23:39.054Z,29.81
2022-09-15T10:26:32.169Z,29.99
2022-09-15T10:29:16.267Z,30.09
2022-09-15T10:31:46.999Z,30.15
2022-09-15T10:34:30.578Z,30.23
2022-09-15T10:37:09.718Z,30.34
2022-09-15T10:39:51.457Z,30.50
2022-09-15T10:42:30.873Z,30.56
2022-09-15T10:45:09.787Z,30.57
2022-09-15T10:47:48.464Z,30.67
2022-09-15T10:50:25.314Z,30.78
2022-09-15T10:53:09.784Z,30.86
2022-09-15T10:55:53.034Z,30.81
2022-09-15T10:58:45.051Z,30.93
2022-09-15T11:01:45.690Z,30.77
2022-09-15T11:04:45.589Z,31.00
2022-09-15T11:07:25.039Z,30.82
2022-09-15T11:10:03.049Z,30.83
2022-09-15T11:12:45.920Z,30.94
2022-09-15T11:15:28.138Z,31.06
2022-09-15T11:18:11.665Z,31.08
2022-09-15T11:21:05.146Z,31.06
2022-09-15T11:23:36.347Z,31.21
2022-09-15T11:26:09.392Z,31.36
2022-09-15T11:28:42.486Z,31.39
2022-09-15T11:31:15.590Z,31.35
2022-09-15T11:33:48.223Z,31.47
2022-09-15T11:36:21.263Z,31.50
2022-09-15T11:38:55.169Z,31.62
2022-09-15T11:41:31.142Z,31.70
2022-09-15T11:44:16.182Z,31.79
2022-09-15T11:47:07.686Z,31.89
2022-09-15T11:49:41.933Z,32.11
2022-09-15T11:52:36.707Z,32.25
2022-09-15T11:55:16.791Z,32.11
2022-09-15T11:57:52.263Z,32.03
2022-09-15T12:00:21.982Z,31.94
2022-09-15T12:02:57.275Z,31.87
2022-09-15T12:05:32.103Z,31.93
2022-09-15T12:08:07.349Z,32.13
2022-09-15T12:10:41.661Z,32.29
2022-09-15T12:13:16.814Z,32.36
2022-09-15T12:15:45.628Z,32.56
2022-09-15T12:18:38.104Z,32.74
2022-09-15T12:21:15.833Z,32.72
2022-09-15T12:23:53.313Z,32.61
2022-09-15T12:26:23.499Z,32.71
2022-09-15T12:28:57.375Z,32.90
2022-09-15T12:31:38.051Z,32.97
2022-09-15T12:34:23.279Z,32.94
2022-09-15T12:36:53.824Z,32.93
2022-09-15T12:39:31.790Z,32.97
2022-09-15T12:42:25.101Z,33.23
2022-09-15T12:44:57.077Z,33.32
2022-09-15T12:47:32.972Z,33.36
2022-09-15T12:50:07.420Z,33.51
2022-09-15T12:52:45.874Z,33.54
2022-09-15T12:55:24.018Z,33.48
2022-09-15T12:57:57.980Z,33.48
2022-09-15T13:00:54.766Z,33.42
2022-09-15T13:03:50.242Z,33.29
2022-09-15T13:06:21.602Z,33.33
2022-09-15T13:08:52.026Z,33.38
2022-09-15T13:11:31.854Z,33.40
2022-09-15T13:14:14.779Z,33.48
2022-09-15T13:16:51.854Z,33.50
2022-09-15T13:19:23.729Z,33.48
2022-09-15T13:21:59.809Z,33.55
2022-09-15T13:24:38.921Z,33.59
2022-09-15T13:27:09.644Z,33.61
2022-09-15T13:29:46.529Z,33.62
2022-09-15T13:32:32.834Z,33.69
2022-09-15T13:35:20.834Z,33.73
2022-09-15T13:38:14.016Z,33.81
2022-09-15T13:41:39.728Z,34.05
2022-09-15T13:44:35.793Z,33.84
2022-09-15T13:47:24.489Z,33.69
2022-09-15T13:49:56.839Z,33.73
2022-09-15T13:52:54.734Z,33.75
2022-09-15T13:55:28.254Z,33.82
2022-09-15T14:00:59.867Z,33.93
2022-09-15T14:03:37.009Z,33.97
2022-09-15T14:06:13.748Z,34.09
2022-09-15T14:08:43.440Z,34.20
2022-09-15T14:11:14.518Z,34.25
2022-09-15T14:13:46.046Z,34.22
2022-09-15T14:16:30.587Z,34.36
2022-09-15T14:19:00.225Z,34.26
2022-09-15T14:21:29.712Z,34.25
2022-09-15T14:23:59.719Z,34.22
2022-09-15T14:26:30.283Z,34.13
2022-09-15T14:29:00.184Z,34.02
2022-09-15T14:31:31.718Z,33.97
2022-09-15T14:34:00.025Z,33.95
2022-09-15T14:36:31.122Z,33.97
2022-09-15T14:39:09.096Z,34.09
2022-09-15T14:41:37.804Z,33.96
2022-09-15T14:47:24.527Z,33.83
2022-09-15T14:50:07.911Z,33.87
2022-09-15T14:52:41.629Z,33.88
2022-09-15T14:55:16.645Z,33.88
2022-09-15T14:57:52.183Z,33.86
2022-09-15T15:00:23.716Z,33.93
2022-09-15T15:03:03.805Z,33.86
2022-09-15T15:05:36.687Z,33.82
2022-09-15T15:08:08.314Z,33.80
2022-09-15T15:10:37.638Z,33.69
2022-09-15T15:13:14.217Z,33.66
2022-09-15T15:15:43.405Z,33.54
2022-09-15T15:18:32.200Z,33.50
2022-09-15T15:21:00.467Z,33.51
2022-09-15T15:23:29.425Z,33.48
2022-09-15T15:26:34.509Z,33.45
2022-09-15T15:29:02.723Z,33.50
2022-09-15T15:31:31.443Z,33.43
2022-09-15T15:34:05.605Z,33.37
2022-09-15T15:36:35.867Z,33.33
2022-09-15T15:39:06.783Z,33.28
2022-09-15T15:41:37.405Z,33.22
2022-09-15T15:44:08.932Z,33.18
2022-09-15T15:46:52.489Z,33.10
2022-09-15T15:49:25.963Z,33.02
2022-09-15T15:52:02.864Z,32.89
2022-09-15T15:54:31.935Z,32.79
2022-09-15T15:57:21.668Z,32.69
2022-09-15T15:59:49.680Z,32.61
2022-09-15T16:02:17.837Z,32.56
2022-09-15T16:04:47.361Z,32.47
2022-09-15T16:07:19.010Z,32.37
2022-09-15T16:09:48.547Z,32.28
2022-09-15T16:12:16.718Z,32.18
2022-09-15T16:14:44.845Z,32.11
2022-09-15T16:17:12.855Z,32.04
2022-09-15T16:19:40.896Z,31.90
2022-09-15T16:22:16.745Z,31.74
2022-09-15T16:24:44.766Z,31.58
2022-09-15T16:27:16.474Z,31.45
2022-09-15T16:29:45.006Z,31.33
2022-09-15T16:32:19.312Z,31.18
2022-09-15T16:34:47.953Z,31.02
2022-09-15T16:37:18.595Z,30.90
2022-09-15T16:39:46.726Z,30.76
2022-09-15T16:42:14.898Z,30.63
2022-09-15T16:44:46.389Z,30.52
2022-09-15T16:47:14.473Z,30.42
2022-09-15T16:49:42.759Z,30.32
2022-09-15T16:52:13.905Z,30.21
2022-09-15T16:54:44.571Z,30.10
2022-09-15T16:57:12.567Z,30.01
2022-09-15T16:59:40.641Z,29.91
2022-09-15T17:02:14.724Z,29.77
2022-09-15T17:04:42.871Z,29.69
2022-09-15T17:07:10.995Z,29.59
2022-09-15T17:09:39.014Z,29.50
2022-09-15T17:12:10.466Z,29.41
2022-09-15T17:14:39.146Z,29.33
2022-09-15T17:17:07.727Z,29.25
2022-09-15T17:19:35.797Z,29.17
2022-09-15T17:22:03.892Z,29.08
2022-09-15T17:24:31.929Z,28.99
2022-09-15T17:27:00.271Z,28.90
2022-09-15T17:29:29.738Z,28.80
2022-09-15T17:31:57.837Z,28.71
2022-09-15T17:34:25.909Z,28.63
2022-09-15T17:36:54.031Z,28.56
2022-09-15T17:39:22.175Z,28.46
2022-09-15T17:41:50.989Z,28.38
2022-09-15T17:44:19.173Z,28.31
2022-09-15T17:46:49.396Z,28.24
2022-09-15T17:49:17.965Z,28.17
2022-09-15T17:51:45.982Z,28.11
2022-09-15T17:54:14.087Z,28.05
2022-09-15T17:56:42.368Z,27.96
2022-09-15T17:59:14.316Z,27.85
2022-09-15T18:01:44.879Z,27.78
2022-09-15T18:04:14.660Z,27.71
2022-09-15T18:06:45.546Z,27.63
2022-09-15T18:09:14.861Z,27.54
2022-09-15T18:11:42.949Z,27.47
2022-09-15T18:14:12.045Z,27.40
2022-09-15T18:16:41.987Z,27.34
2022-09-15T18:19:10.987Z,27.27
2022-09-15T18:21:40.506Z,27.18
2022-09-15T18:24:10.769Z,27.12
2022-09-15T18:26:38.789Z,27.06
2022-09-15T18:29:06.923Z,27.01
2022-09-15T18:31:35.192Z,26.97
2022-09-15T18:34:03.271Z,26.92
2022-09-15T18:36:31.448Z,26.87
2022-09-15T18:39:01.251Z,26.88
2022-09-15T18:41:29.368Z,26.84
2022-09-15T18:43:57.747Z,26.78
2022-09-15T18:46:25.899Z,26.74
2022-09-15T18:48:54.125Z,26.66
2022-09-15T18:51:29.174Z,26.69
2022-09-15T18:54:04.527Z,26.65
2022-09-15T18:56:32.632Z,26.66
2022-09-15T18:59:00.737Z,26.60
2022-09-15T19:01:29.067Z,26.57
2022-09-15T19:03:58.343Z,26.47
2022-09-15T19:06:29.785Z,26.41
2022-09-15T19:08:58.406Z,26.41
2022-09-15T19:11:29.363Z,26.31
2022-09-15T19:13:57.845Z,26.25
2022-09-15T19:16:34.702Z,26.22
2022-09-15T19:19:08.612Z,26.29
2022-09-15T19:21:37.455Z,26.26
2022-09-15T19:24:05.823Z,26.22
2022-09-15T19:26:35.346Z,26.16
2022-09-15T19:29:04.267Z,26.17
2022-09-15T19:31:32.720Z,26.14
2022-09-15T19:34:00.804Z,26.07
2022-09-15T19:36:29.405Z,26.04
2022-09-15T19:38:58.073Z,25.95
2022-09-15T19:41:26.554Z,25.94
2022-09-15T19:43:56.069Z,25.96
2022-09-15T19:46:26.211Z,26.02
2022-09-15T19:48:55.283Z,25.93
2022-09-15T19:51:23.915Z,25.91
2022-09-15T19:53:55.231Z,25.87
2022-09-15T19:56:26.319Z,25.85
2022-09-15T19:58:57.085Z,25.80
2022-09-15T20:01:27.377Z,25.77
2022-09-15T20:03:57.038Z,25.69
2022-09-15T20:06:28.946Z,25.60
2022-09-15T20:09:00.228Z,25.58
2022-09-15T20:11:29.669Z,25.48
2022-09-15T20:13:59.696Z,25.41
2022-09-15T20:16:28.531Z,25.31
2022-09-15T20:18:56.970Z,25.25
2022-09-15T20:21:46.288Z,25.16
2022-09-15T20:24:18.996Z,25.05
2022-09-15T20:26:47.383Z,24.96
2022-09-15T20:29:17.208Z,24.87
2022-09-15T20:31:45.210Z,24.77
2022-09-15T20:34:13.340Z,24.70
2022-09-15T20:36:41.629Z,24.63
2022-09-15T20:39:13.212Z,24.59
2022-09-15T20:41:42.255Z,24.52
2022-09-15T20:44:10.321Z,24.49
2022-09-15T20:46:39.792Z,24.47
2022-09-15T20:49:09.033Z,24.42
2022-09-15T20:51:37.149Z,24.38
2022-09-15T20:54:06.232Z,24.33
2022-09-15T20:56:36.298Z,24.25
2022-09-15T20:59:06.122Z,24.20
2022-09-15T21:01:36.357Z,24.16
2022-09-15T21:04:06.936Z,24.13
2022-09-15T21:06:35.973Z,24.11
2022-09-15T21:09:05.838Z,24.09
2022-09-15T21:11:33.951Z,24.07
2022-09-15T21:14:03.685Z,24.04
2022-09-15T21:16:33.877Z,24.03
2022-09-15T21:19:02.491Z,24.06
2022-09-15T21:21:33.642Z,23.97
2022-09-15T21:24:04.160Z,23.92
2022-09-15T21:26:34.118Z,23.91
2022-09-15T21:29:02.764Z,23.90
2022-09-15T21:31:33.319Z,23.91
2022-09-15T21:34:01.416Z,23.88
2022-09-15T21:36:32.217Z,23.87
2022-09-15T21:39:03.021Z,23.85
2022-09-15T21:41:31.278Z,23.82
2022-09-15T21:44:01.078Z,23.81
2022-09-15T21:46:30.458Z,23.77
2022-09-15T21:49:00.576Z,23.72
2022-09-15T21:51:31.349Z,23.68
2022-09-15T21:54:01.077Z,23.64
2022-09-15T21:56:30.361Z,23.59
2022-09-15T21:58:58.503Z,23.55
2022-09-15T22:01:29.266Z,23.52
2022-09-15T22:03:59.900Z,23.47
2022-09-15T22:06:31.745Z,23.41
2022-09-15T22:09:02.105Z,23.32
2022-09-15T22:11:30.337Z,23.26
2022-09-15T22:13:58.800Z,23.21
2022-09-15T22:16:27.165Z,23.20
2022-09-15T22:18:55.622Z,23.14
2022-09-15T22:21:26.184Z,23.12
2022-09-15T22:23:56.772Z,23.09
2022-09-15T22:26:28.479Z,23.03
2022-09-15T22:28:57.207Z,22.97
2022-09-15T22:31:26.159Z,22.89
2022-09-15T22:33:54.906Z,22.81
2022-09-15T22:36:28.977Z,22.77
2022-09-15T22:39:04.130Z,22.74
2022-09-15T22:41:36.687Z,22.68
2022-09-15T22:44:05.319Z,22.63
2022-09-15T22:46:33.556Z,22.66
2022-09-15T22:49:01.978Z,22.75
2022-09-15T22:51:30.410Z,22.73
2022-09-15T22:53:59.376Z,22.56
2022-09-15T22:56:27.743Z,22.48
2022-09-15T22:58:57.774Z,22.45
2022-09-15T23:01:28.402Z,22.45
2022-09-15T23:04:02.106Z,22.47
2022-09-15T23:06:32.498Z,22.50
2022-09-15T23:09:03.405Z,22.45
2022-09-15T23:11:33.413Z,22.40
2022-09-15T23:14:03.238Z,22.50
2022-09-15T23:16:31.665Z,22.56
2022-09-15T23:19:00.709Z,22.52
2022-09-15T23:21:29.108Z,22.44
2022-09-15T23:23:57.515Z,22.46
2022-09-15T23:26:26.874Z,22.39
2022-09-15T23:28:55.043Z,22.37
2022-09-15T23:31:24.589Z,22.30
2022-09-15T23:33:52.769Z,22.23
2022-09-15T23:36:21.228Z,22.17
2022-09-15T23:38:49.928Z,22.12
2022-09-15T23:41:19.157Z,22.10
2022-09-15T23:43:47.682Z,22.03
2022-09-15T23:46:15.841Z,21.95
2022-09-15T23:48:45.406Z,21.90
2022-09-15T23:51:13.373Z,21.88
2022-09-15T23:53:41.376Z,21.85
2022-09-15T23:56:10.403Z,21.79
2022-09-15T23:58:38.927Z,21.75
